Saint Regis, Montana
Current Conditions -  °F | °C
As of 5:17 AM on Sunday 25 Jan 2015 (Local Time) from KMLP Reporting Station
Haze Haze  
Wind Chill: 32°   Ceiling: 800
Heat Index: 37°   Visibility: 1.2mi
Dew Point: 37°   Wind: 7mph
Humidity: 100%   Direction: 290°WNW
Pressure: 30.22"   Gusts: NA
Location:  47.3°N, 115.1°W
Report Text: KMLP 251217Z AUTO 29006KT 1 1/4SM BR SCT001 BKN008 BKN012 03/03 A3022 RMK AO2 VIS 1/4V5 T00280028
Loading
Personal Weather Stations






























Interactive Weather Map New forecast layout! Learn more

10-Day Weather Forecast

Advertisements
Track Severe Weather on mobile